Time;durP1;ratioP1;P1;durP2;ratioP2;P2;SDS_P1;SDS_P2;PMS_P1;PMS_P2;Temp;Humidity;BMP_temperature;BMP_pressure;BME280_temperature;BME280_humidity;BME280_pressure;Samples;Min_cycle;Max_cycle;Signal;HPM_P1;HPM_P2
2023/08/19 00:00:38;;;;;;;;;;;28.70;58.10;;;;;;5125967;27;45055;-84
2023/08/19 00:03:04;;;;;;;;;;;28.70;57.90;;;;;;5084227;27;43655;-86
2023/08/19 00:05:29;;;;;;;;;;;29.20;58.30;;;;;;5093908;27;44570;-85
2023/08/19 00:07:55;;;;;;;;;;;28.80;58.10;;;;;;5098846;27;42945;-80
2023/08/19 00:10:20;;;;;;;;;;;28.80;58.20;;;;;;5102485;27;43376;-84
2023/08/19 00:12:46;;;;;;;;;;;28.70;58.30;;;;;;5095726;27;43017;-84
2023/08/19 00:15:11;;;;;;;;;;;28.70;58.40;;;;;;5094568;27;43675;-86
2023/08/19 00:17:37;;;;;;;;;;;28.60;58.60;;;;;;5095389;27;42819;-84
2023/08/19 00:20:06;;;;;;;;;;;28.60;58.50;;;;;;5100278;27;42938;-80
2023/08/19 00:22:31;;;;;;;;;;;28.70;58.70;;;;;;5096154;27;42723;-85
2023/08/19 00:24:57;;;;;;;;;;;28.70;58.50;;;;;;5101902;27;42834;-86
2023/08/19 00:27:22;;;;;;;;;;;28.60;58.50;;;;;;5095988;27;42929;-88
2023/08/19 00:29:48;;;;;;;;;;;28.60;59.20;;;;;;5100321;27;42954;-88
2023/08/19 00:32:13;;;;;;;;;;;28.60;59.20;;;;;;5096688;27;43037;-85
2023/08/19 00:34:39;;;;;;;;;;;28.60;59.10;;;;;;5101324;27;43039;-84
2023/08/19 00:37:05;;;;;;;;;;;28.60;59.00;;;;;;5090436;27;42879;-80
2023/08/19 00:39:30;;;;;;;;;;;28.60;58.80;;;;;;5082111;27;42952;-83
2023/08/19 00:41:56;;;;;;;;;;;28.60;58.70;;;;;;5085684;27;43024;-80
2023/08/19 00:44:21;;;;;;;;;;;28.60;58.50;;;;;;5100238;27;42945;-80
2023/08/19 00:46:47;;;;;;;;;;;28.60;58.70;;;;;;5093009;27;43094;-82
2023/08/19 00:49:12;;;;;;;;;;;28.60;58.90;;;;;;5103903;27;43037;-84
2023/08/19 00:51:38;;;;;;;;;;;28.50;58.80;;;;;;5093151;27;42963;-80
2023/08/19 00:54:04;;;;;;;;;;;28.50;58.90;;;;;;5096186;27;43711;-79
2023/08/19 00:56:29;;;;;;;;;;;28.40;58.60;;;;;;5094632;27;42964;-84
2023/08/19 00:58:55;;;;;;;;;;;28.50;58.30;;;;;;5092084;27;42864;-84
2023/08/19 01:01:20;;;;;;;;;;;28.50;58.20;;;;;;5105378;27;42895;-84
2023/08/19 01:03:46;;;;;;;;;;;28.50;58.00;;;;;;5105309;27;43430;-80
2023/08/19 01:06:14;;;;;;;;;;;28.50;58.20;;;;;;5105935;27;42939;-85
2023/08/19 01:08:42;;;;;;;;;;;28.40;58.00;;;;;;5104493;27;43059;-80
2023/08/19 01:11:16;;;;;;;;;;;28.40;58.30;;;;;;5102621;27;42878;-84
2023/08/19 01:14:00;;;;;;;;;;;28.50;58.30;;;;;;5084803;27;43454;-80
2023/08/19 01:16:27;;;;;;;;;;;28.40;58.30;;;;;;5085096;27;43148;-79
2023/08/19 01:18:54;;;;;;;;;;;28.50;58.80;;;;;;5085169;27;42913;-79
2023/08/19 01:21:20;;;;;;;;;;;28.40;58.70;;;;;;5098647;27;43640;-80
2023/08/19 01:23:47;;;;;;;;;;;28.40;58.80;;;;;;5084041;27;43692;-83
2023/08/19 01:26:12;;;;;;;;;;;28.30;58.80;;;;;;5084315;27;42992;-80
2023/08/19 01:28:38;;;;;;;;;;;28.30;58.80;;;;;;5088832;27;43799;-82
2023/08/19 01:31:03;;;;;;;;;;;28.40;59.00;;;;;;5103936;27;42890;-81
2023/08/19 01:33:29;;;;;;;;;;;28.30;59.10;;;;;;5104317;27;42904;-83
2023/08/19 01:36:08;;;;;;;;;;;28.30;59.10;;;;;;5103901;27;42957;-83
2023/08/19 01:38:39;;;;;;;;;;;28.20;58.90;;;;;;5104338;27;43613;-81
2023/08/19 01:41:05;;;;;;;;;;;28.50;59.00;;;;;;5104172;27;42841;-84
2023/08/19 01:43:31;;;;;;;;;;;28.40;58.90;;;;;;5105335;27;42889;-84
2023/08/19 01:45:57;;;;;;;;;;;28.40;58.80;;;;;;5094349;27;42846;-84
2023/08/19 01:48:22;;;;;;;;;;;28.30;58.90;;;;;;5098230;27;43041;-80
2023/08/19 01:50:50;;;;;;;;;;;28.30;59.10;;;;;;5103538;27;60580;-85
2023/08/19 01:53:15;;;;;;;;;;;28.30;59.10;;;;;;5103580;27;43285;-83
2023/08/19 01:55:41;;;;;;;;;;;28.20;59.40;;;;;;5085103;27;42886;-84
2023/08/19 01:58:06;;;;;;;;;;;28.10;59.40;;;;;;5084552;27;43897;-84
2023/08/19 02:00:32;;;;;;;;;;;28.10;59.50;;;;;;5083737;27;43033;-85
2023/08/19 02:02:57;;;;;;;;;;;28.10;59.60;;;;;;5082707;27;43769;-85
2023/08/19 02:05:23;;;;;;;;;;;28.20;59.50;;;;;;5087980;27;42875;-84
2023/08/19 02:07:48;;;;;;;;;;;28.20;59.50;;;;;;5091991;27;43600;-85
2023/08/19 02:10:14;;;;;;;;;;;28.10;59.80;;;;;;5088551;27;42945;-85
2023/08/19 02:12:39;;;;;;;;;;;28.20;59.30;;;;;;5091654;27;42899;-83
2023/08/19 02:15:05;;;;;;;;;;;28.30;59.20;;;;;;5087878;27;43015;-84
2023/08/19 02:17:30;;;;;;;;;;;28.30;59.60;;;;;;5091223;27;43471;-83
2023/08/19 02:19:56;;;;;;;;;;;28.20;59.40;;;;;;5088614;27;42956;-83
2023/08/19 02:22:21;;;;;;;;;;;28.20;59.40;;;;;;5092333;27;42875;-85
2023/08/19 02:24:47;;;;;;;;;;;28.20;59.40;;;;;;5088082;27;43084;-86
2023/08/19 02:27:13;;;;;;;;;;;28.20;59.20;;;;;;5087662;27;43022;-84
2023/08/19 02:29:38;;;;;;;;;;;28.20;59.20;;;;;;5087650;27;44073;-85
2023/08/19 02:32:04;;;;;;;;;;;28.20;59.30;;;;;;5091082;27;42945;-81
2023/08/19 02:34:30;;;;;;;;;;;28.20;59.30;;;;;;5087215;27;43037;-83
2023/08/19 02:36:55;;;;;;;;;;;28.20;59.60;;;;;;5087676;27;43020;-83
2023/08/19 02:39:21;;;;;;;;;;;28.10;59.80;;;;;;5084030;27;42807;-84
2023/08/19 02:41:46;;;;;;;;;;;28.00;59.60;;;;;;5092792;27;43708;-84
2023/08/19 02:44:12;;;;;;;;;;;28.00;59.70;;;;;;5092217;27;42746;-84
2023/08/19 02:46:37;;;;;;;;;;;28.00;60.00;;;;;;5090803;27;43083;-79
2023/08/19 02:49:03;;;;;;;;;;;28.00;59.60;;;;;;5120815;27;42795;-82
2023/08/19 02:51:29;;;;;;;;;;;28.00;59.80;;;;;;5087455;27;43568;-80
2023/08/19 02:53:55;;;;;;;;;;;28.20;59.90;;;;;;5120471;27;43003;-85
2023/08/19 02:56:20;;;;;;;;;;;27.40;59.40;;;;;;5118508;27;44710;-83
2023/08/19 02:58:46;;;;;;;;;;;28.00;59.90;;;;;;5120060;27;42961;-83
2023/08/19 03:01:13;;;;;;;;;;;27.90;60.00;;;;;;5087330;27;43710;-79
2023/08/19 03:03:38;;;;;;;;;;;28.00;60.20;;;;;;5074274;27;42890;-80
2023/08/19 03:06:04;;;;;;;;;;;27.90;59.80;;;;;;5087617;27;43745;-83
2023/08/19 03:08:29;;;;;;;;;;;28.00;59.90;;;;;;5087593;27;43027;-84
2023/08/19 03:10:55;;;;;;;;;;;28.00;60.10;;;;;;5087136;27;43746;-83
2023/08/19 03:13:20;;;;;;;;;;;28.00;59.90;;;;;;5088287;27;43149;-85
2023/08/19 03:15:46;;;;;;;;;;;28.00;59.80;;;;;;5088057;27;42947;-84
2023/08/19 03:18:14;;;;;;;;;;;28.00;59.80;;;;;;5088724;27;42912;-84
2023/08/19 03:20:41;;;;;;;;;;;27.90;59.60;;;;;;5089854;27;43326;-84
2023/08/19 03:23:06;;;;;;;;;;;28.40;59.70;;;;;;5089369;27;43206;-84
2023/08/19 03:25:32;;;;;;;;;;;27.90;59.50;;;;;;5089685;27;43041;-84
2023/08/19 03:27:57;;;;;;;;;;;27.90;59.50;;;;;;5086895;27;43456;-82
2023/08/19 03:30:23;;;;;;;;;;;28.00;59.40;;;;;;5089719;27;42941;-84
2023/08/19 03:32:49;;;;;;;;;;;27.90;59.20;;;;;;5089476;27;43188;-83
2023/08/19 03:35:14;;;;;;;;;;;27.80;59.20;;;;;;5083902;27;43121;-81
2023/08/19 03:37:40;;;;;;;;;;;27.90;59.20;;;;;;5085628;27;42958;-84
2023/08/19 03:40:06;;;;;;;;;;;27.80;59.30;;;;;;5087838;27;43461;-82
2023/08/19 03:42:31;;;;;;;;;;;27.80;59.30;;;;;;5087538;27;42958;-82
2023/08/19 03:44:57;;;;;;;;;;;27.70;59.40;;;;;;5089511;27;43613;-83
2023/08/19 03:47:22;;;;;;;;;;;27.70;59.50;;;;;;5086546;27;42948;-84
2023/08/19 03:49:48;;;;;;;;;;;27.70;59.40;;;;;;5099286;27;43470;-82
2023/08/19 03:52:13;;;;;;;;;;;27.80;59.40;;;;;;5106415;27;42945;-84
2023/08/19 03:54:39;;;;;;;;;;;26.40;58.20;;;;;;5105397;27;43412;-85
2023/08/19 03:57:04;;;;;;;;;;;27.90;59.10;;;;;;5105738;27;42909;-86
2023/08/19 03:59:30;;;;;;;;;;;27.90;59.00;;;;;;5106411;27;42921;-85
2023/08/19 04:01:55;;;;;;;;;;;27.90;58.90;;;;;;5106485;27;42937;-84
2023/08/19 04:04:21;;;;;;;;;;;27.80;59.00;;;;;;5104638;27;44657;-85
2023/08/19 04:06:46;;;;;;;;;;;27.80;59.20;;;;;;5106294;27;43026;-84
2023/08/19 04:09:12;;;;;;;;;;;27.80;59.20;;;;;;5104281;27;43605;-79
2023/08/19 04:11:38;;;;;;;;;;;27.80;59.40;;;;;;5105627;27;42940;-84
2023/08/19 04:14:05;;;;;;;;;;;27.70;60.00;;;;;;5100072;27;43043;-84
2023/08/19 04:16:31;;;;;;;;;;;27.70;59.70;;;;;;5079390;27;43070;-85
2023/08/19 04:18:56;;;;;;;;;;;27.60;59.70;;;;;;5106124;27;42896;-82
2023/08/19 04:21:22;;;;;;;;;;;27.60;59.70;;;;;;5106076;27;42924;-83
2023/08/19 04:23:48;;;;;;;;;;;27.60;59.60;;;;;;5091433;27;43988;-83
2023/08/19 04:26:14;;;;;;;;;;;27.70;59.70;;;;;;5086554;27;42987;-80
2023/08/19 04:28:39;;;;;;;;;;;27.80;59.50;;;;;;5085879;27;43025;-81
2023/08/19 04:31:06;;;;;;;;;;;27.70;59.30;;;;;;5084371;27;43028;-79
2023/08/19 04:33:32;;;;;;;;;;;27.80;59.50;;;;;;5085717;27;43582;-83
2023/08/19 04:35:58;;;;;;;;;;;27.70;59.70;;;;;;5086043;27;42879;-79
2023/08/19 04:38:24;;;;;;;;;;;27.70;59.40;;;;;;5085499;27;44066;-82
2023/08/19 04:40:50;;;;;;;;;;;27.60;59.50;;;;;;5097805;27;43106;-78
2023/08/19 04:43:16;;;;;;;;;;;27.60;59.70;;;;;;5085941;27;42993;-83
2023/08/19 04:45:42;;;;;;;;;;;27.60;59.70;;;;;;5085378;27;43034;-82
2023/08/19 04:48:07;;;;;;;;;;;27.80;59.60;;;;;;5085540;27;42844;-82
2023/08/19 04:50:33;;;;;;;;;;;27.60;59.40;;;;;;5084239;27;42984;-79
2023/08/19 04:52:59;;;;;;;;;;;27.70;59.40;;;;;;5084480;27;43561;-84
2023/08/19 04:55:26;;;;;;;;;;;27.70;59.40;;;;;;5104300;27;43063;-83
2023/08/19 04:57:51;;;;;;;;;;;27.60;59.70;;;;;;5105323;27;43042;-79
2023/08/19 05:00:17;;;;;;;;;;;27.50;59.80;;;;;;5103873;27;43054;-80
2023/08/19 05:02:43;;;;;;;;;;;27.50;60.00;;;;;;5105277;27;42905;-79
2023/08/19 05:05:08;;;;;;;;;;;27.50;60.00;;;;;;5102573;27;42882;-80
2023/08/19 05:07:34;;;;;;;;;;;27.50;60.10;;;;;;5097572;27;44496;-78
2023/08/19 05:09:59;;;;;;;;;;;27.50;60.20;;;;;;5096039;27;43062;-84
2023/08/19 05:12:25;;;;;;;;;;;27.70;60.50;;;;;;5071410;27;43023;-82
2023/08/19 05:14:51;;;;;;;;;;;27.60;60.20;;;;;;5101848;27;43021;-82
2023/08/19 05:17:17;;;;;;;;;;;27.60;59.90;;;;;;5103961;27;42901;-82
2023/08/19 05:19:43;;;;;;;;;;;27.80;60.00;;;;;;5103057;27;43266;-81
2023/08/19 05:22:08;;;;;;;;;;;27.80;59.90;;;;;;5104153;27;43040;-82
2023/08/19 05:24:34;;;;;;;;;;;27.80;59.80;;;;;;5103025;27;42985;-83
2023/08/19 05:26:59;;;;;;;;;;;27.80;60.00;;;;;;5090756;27;42904;-82
2023/08/19 05:29:25;;;;;;;;;;;27.90;59.90;;;;;;5099296;27;42962;-81
2023/08/19 05:31:50;;;;;;;;;;;27.90;59.80;;;;;;5084299;27;42782;-82
2023/08/19 05:34:16;;;;;;;;;;;27.90;59.70;;;;;;5099782;27;42999;-80
2023/08/19 05:36:42;;;;;;;;;;;28.00;59.90;;;;;;5103600;27;43006;-81
2023/08/19 05:39:07;;;;;;;;;;;28.00;59.90;;;;;;5087947;27;42909;-81
2023/08/19 05:41:33;;;;;;;;;;;28.00;59.80;;;;;;5084539;27;42932;-82
2023/08/19 05:43:58;;;;;;;;;;;28.00;59.90;;;;;;5116848;27;43102;-82
2023/08/19 05:46:24;;;;;;;;;;;28.00;60.00;;;;;;5084516;27;42996;-81
2023/08/19 05:48:49;;;;;;;;;;;28.00;60.00;;;;;;5083332;27;43071;-82
2023/08/19 05:51:15;;;;;;;;;;;28.00;60.00;;;;;;5083039;27;43530;-82
2023/08/19 05:53:40;;;;;;;;;;;28.00;59.80;;;;;;5096733;27;42951;-82
2023/08/19 05:56:06;;;;;;;;;;;28.00;60.00;;;;;;5095186;27;42971;-82
2023/08/19 05:58:32;;;;;;;;;;;28.00;60.00;;;;;;5095507;27;43004;-81
2023/08/19 06:00:58;;;;;;;;;;;28.00;59.90;;;;;;5096991;27;42929;-81
2023/08/19 06:03:24;;;;;;;;;;;28.00;59.80;;;;;;5076826;27;42823;-82
2023/08/19 06:05:50;;;;;;;;;;;28.00;59.80;;;;;;5092351;27;42982;-80
2023/08/19 06:08:15;;;;;;;;;;;28.10;59.30;;;;;;5103399;27;42940;-82
2023/08/19 06:10:44;;;;;;;;;;;28.10;59.70;;;;;;5094403;27;43136;-81
2023/08/19 06:13:12;;;;;;;;;;;28.20;59.60;;;;;;5083493;27;42905;-81
2023/08/19 06:15:38;;;;;;;;;;;28.20;59.40;;;;;;5083436;27;43538;-81
2023/08/19 06:18:04;;;;;;;;;;;28.20;59.30;;;;;;5083398;27;42904;-83
2023/08/19 06:20:29;;;;;;;;;;;28.20;59.40;;;;;;5087333;27;43717;-80
2023/08/19 06:22:55;;;;;;;;;;;28.30;59.30;;;;;;5086650;27;43005;-83
2023/08/19 06:25:21;;;;;;;;;;;28.30;59.80;;;;;;5100930;27;43106;-80
2023/08/19 06:27:46;;;;;;;;;;;28.30;59.60;;;;;;5086087;27;43693;-82
2023/08/19 06:30:12;;;;;;;;;;;28.20;59.60;;;;;;5092706;27;43723;-82
2023/08/19 06:32:38;;;;;;;;;;;28.30;59.60;;;;;;5089381;27;42937;-82
2023/08/19 06:35:04;;;;;;;;;;;28.30;59.60;;;;;;5095256;27;43625;-83
2023/08/19 06:37:30;;;;;;;;;;;28.40;59.30;;;;;;5095014;27;43107;-83
2023/08/19 06:39:57;;;;;;;;;;;28.40;58.80;;;;;;5095942;27;42763;-82
2023/08/19 06:42:23;;;;;;;;;;;28.40;58.80;;;;;;5085657;27;43842;-81
2023/08/19 06:44:50;;;;;;;;;;;28.40;58.80;;;;;;5096593;27;43659;-79
2023/08/19 06:47:20;;;;;;;;;;;28.40;58.70;;;;;;5086901;27;43646;-80
2023/08/19 06:49:46;;;;;;;;;;;28.40;58.70;;;;;;5086449;27;43682;-81
2023/08/19 06:52:11;;;;;;;;;;;28.40;58.70;;;;;;5096934;27;42963;-81
2023/08/19 06:54:37;;;;;;;;;;;28.40;58.80;;;;;;5101229;27;43000;-81
2023/08/19 06:57:06;;;;;;;;;;;28.50;58.50;;;;;;5092049;27;42967;-83
2023/08/19 06:59:35;;;;;;;;;;;28.50;58.50;;;;;;5096281;27;42983;-83
2023/08/19 07:02:02;;;;;;;;;;;28.60;58.50;;;;;;5080284;27;42902;-85
2023/08/19 07:04:29;;;;;;;;;;;28.50;58.40;;;;;;5088028;27;43043;-82
2023/08/19 07:06:58;;;;;;;;;;;28.60;58.50;;;;;;5088293;27;42922;-82
2023/08/19 07:09:24;;;;;;;;;;;28.50;58.20;;;;;;5099697;27;42976;-79
2023/08/19 07:11:53;;;;;;;;;;;28.60;58.30;;;;;;5093799;27;42993;-78
2023/08/19 07:14:19;;;;;;;;;;;28.60;58.30;;;;;;5090854;27;42968;-78
2023/08/19 07:16:46;;;;;;;;;;;28.60;58.20;;;;;;5101986;27;43054;-80
2023/08/19 07:19:14;;;;;;;;;;;28.50;58.10;;;;;;5102602;27;43738;-78
2023/08/19 07:21:40;;;;;;;;;;;28.60;58.20;;;;;;5080129;27;43107;-78
2023/08/19 07:24:05;;;;;;;;;;;28.60;58.30;;;;;;5093961;27;42957;-77
2023/08/19 07:26:32;;;;;;;;;;;28.60;58.30;;;;;;5100643;27;42960;-78
2023/08/19 07:28:58;;;;;;;;;;;28.60;58.10;;;;;;5099981;27;43608;-77
2023/08/19 07:31:24;;;;;;;;;;;28.70;58.20;;;;;;5079238;27;43018;-78
2023/08/19 07:33:50;;;;;;;;;;;28.60;58.10;;;;;;5085119;27;43579;-81
2023/08/19 07:36:15;;;;;;;;;;;28.70;58.20;;;;;;5098390;27;43035;-80
2023/08/19 07:38:41;;;;;;;;;;;28.70;58.40;;;;;;5083233;27;44322;-79
2023/08/19 07:41:06;;;;;;;;;;;28.70;58.60;;;;;;5089631;27;43194;-78
2023/08/19 07:43:32;;;;;;;;;;;28.70;58.40;;;;;;5088437;27;43713;-78
2023/08/19 07:45:57;;;;;;;;;;;28.70;58.40;;;;;;5093113;27;42998;-78
2023/08/19 07:48:23;;;;;;;;;;;28.70;58.50;;;;;;5085200;27;42969;-79
2023/08/19 07:50:48;;;;;;;;;;;28.70;58.20;;;;;;5085967;27;42969;-78
2023/08/19 07:53:14;;;;;;;;;;;28.70;58.30;;;;;;5086953;27;43371;-77
2023/08/19 07:55:39;;;;;;;;;;;28.80;58.30;;;;;;5119112;27;43015;-77
2023/08/19 07:58:05;;;;;;;;;;;28.70;58.30;;;;;;5089100;27;43097;-79
2023/08/19 08:00:30;;;;;;;;;;;28.80;58.40;;;;;;5085903;27;43000;-80
2023/08/19 08:02:56;;;;;;;;;;;28.80;58.70;;;;;;5085393;27;44350;-76
2023/08/19 08:05:23;;;;;;;;;;;28.80;58.50;;;;;;5086869;27;43097;-75
2023/08/19 08:07:48;;;;;;;;;;;28.80;58.50;;;;;;5090456;27;44507;-78
2023/08/19 08:10:14;;;;;;;;;;;28.80;58.50;;;;;;5092597;27;42999;-81
2023/08/19 08:12:40;;;;;;;;;;;28.90;58.60;;;;;;5085257;27;42989;-75
2023/08/19 08:15:06;;;;;;;;;;;28.90;58.60;;;;;;5085989;27;43075;-76
2023/08/19 08:17:31;;;;;;;;;;;28.90;58.60;;;;;;5091122;27;43155;-80
2023/08/19 08:19:57;;;;;;;;;;;28.80;58.60;;;;;;5090941;27;43261;-78
2023/08/19 08:22:23;;;;;;;;;;;29.50;59.10;;;;;;5087697;27;43378;-79
2023/08/19 08:24:49;;;;;;;;;;;28.90;58.60;;;;;;5085746;27;42954;-82
2023/08/19 08:27:15;;;;;;;;;;;29.00;58.70;;;;;;5087537;27;43076;-85
2023/08/19 08:29:40;;;;;;;;;;;28.90;58.70;;;;;;5086726;27;42957;-82
2023/08/19 08:32:06;;;;;;;;;;;28.90;58.70;;;;;;5086747;27;43660;-79
2023/08/19 08:34:31;;;;;;;;;;;28.90;58.70;;;;;;5087234;27;42901;-82
2023/08/19 08:36:57;;;;;;;;;;;28.90;58.80;;;;;;5086399;27;42983;-79
2023/08/19 08:39:22;;;;;;;;;;;29.00;59.30;;;;;;5084261;27;43025;-83
2023/08/19 08:41:50;;;;;;;;;;;29.00;58.90;;;;;;5088798;27;43538;-85
2023/08/19 08:44:16;;;;;;;;;;;29.00;58.80;;;;;;5090529;27;42908;-80
2023/08/19 08:46:43;;;;;;;;;;;29.00;58.80;;;;;;5093294;27;43489;-79
2023/08/19 08:49:09;;;;;;;;;;;28.90;58.20;;;;;;5091197;27;42897;-86
2023/08/19 08:51:35;;;;;;;;;;;29.00;58.70;;;;;;5088036;27;42987;-79
2023/08/19 08:54:01;;;;;;;;;;;29.00;58.80;;;;;;5087265;27;42933;-79
2023/08/19 08:56:26;;;;;;;;;;;29.00;58.30;;;;;;5088594;27;43034;-80
2023/08/19 08:58:52;;;;;;;;;;;29.00;58.80;;;;;;5087699;27;43078;-79
2023/08/19 09:01:19;;;;;;;;;;;29.00;58.90;;;;;;5086172;27;43241;-80
2023/08/19 09:03:45;;;;;;;;;;;29.00;58.80;;;;;;5086580;27;42954;-79
2023/08/19 09:06:14;;;;;;;;;;;29.00;58.80;;;;;;5087877;27;43539;-79
2023/08/19 09:08:42;;;;;;;;;;;29.00;58.80;;;;;;5086590;27;42891;-78
2023/08/19 09:11:11;;;;;;;;;;;29.00;58.30;;;;;;5089194;27;43054;-84
2023/08/19 09:13:38;;;;;;;;;;;29.00;58.60;;;;;;5085337;27;42884;-80
2023/08/19 09:16:10;;;;;;;;;;;29.00;58.10;;;;;;5087783;27;45161;-78
2023/08/19 09:18:36;;;;;;;;;;;30.90;59.30;;;;;;5080786;27;42849;-78
2023/08/19 09:21:02;;;;;;;;;;;29.10;58.60;;;;;;5088522;27;43660;-79
2023/08/19 09:23:31;;;;;;;;;;;29.00;58.20;;;;;;5092972;27;43005;-79
2023/08/19 09:25:57;;;;;;;;;;;27.90;57.70;;;;;;5090513;27;44054;-79
2023/08/19 09:28:23;;;;;;;;;;;29.00;58.70;;;;;;5098324;27;42990;-78
2023/08/19 09:30:48;;;;;;;;;;;29.10;58.20;;;;;;5087904;27;44042;-80
2023/08/19 09:33:17;;;;;;;;;;;29.10;58.80;;;;;;5088433;27;42957;-81
2023/08/19 09:35:43;;;;;;;;;;;29.10;58.70;;;;;;5090209;27;43042;-84
2023/08/19 09:38:18;;;;;;;;;;;29.10;58.90;;;;;;5097095;27;43353;-81
2023/08/19 09:40:44;;;;;;;;;;;29.10;58.80;;;;;;5093441;27;43940;-81
2023/08/19 09:43:10;;;;;;;;;;;29.00;58.50;;;;;;5092529;27;43027;-83
2023/08/19 09:45:38;;;;;;;;;;;29.00;59.40;;;;;;5095201;27;42988;-80
2023/08/19 09:48:06;;;;;;;;;;;29.00;59.40;;;;;;5100511;27;42984;-83
2023/08/19 09:50:31;;;;;;;;;;;29.10;59.40;;;;;;5100746;27;43054;-81
2023/08/19 09:52:58;;;;;;;;;;;29.10;59.60;;;;;;5102630;27;43046;-79
2023/08/19 09:55:25;;;;;;;;;;;29.10;58.80;;;;;;5088549;27;44392;-83
2023/08/19 09:57:51;;;;;;;;;;;29.10;59.40;;;;;;5085258;27;42958;-81
2023/08/19 10:00:17;;;;;;;;;;;29.30;59.70;;;;;;5115230;27;43593;-87
2023/08/19 10:02:42;;;;;;;;;;;28.80;58.60;;;;;;5090602;27;43472;-78
2023/08/19 10:05:08;;;;;;;;;;;29.10;59.50;;;;;;5086444;27;43208;-77
2023/08/19 10:07:34;;;;;;;;;;;29.20;59.60;;;;;;5083609;27;43152;-79
2023/08/19 10:10:03;;;;;;;;;;;29.20;59.50;;;;;;5114758;27;44563;-79
2023/08/19 10:12:30;;;;;;;;;;;29.10;59.00;;;;;;5095233;27;43022;-79
2023/08/19 10:14:57;;;;;;;;;;;29.20;59.90;;;;;;5089234;27;42961;-81
2023/08/19 10:17:24;;;;;;;;;;;29.10;59.60;;;;;;5083116;27;43032;-82
2023/08/19 10:19:53;;;;;;;;;;;28.90;59.80;;;;;;5079718;27;43097;-79
2023/08/19 10:22:19;;;;;;;;;;;29.10;60.40;;;;;;5082172;27;43214;-86
2023/08/19 10:24:45;;;;;;;;;;;29.10;60.30;;;;;;5101612;27;45087;-84
2023/08/19 10:27:18;;;;;;;;;;;29.10;60.50;;;;;;5083912;27;43076;-85
2023/08/19 10:29:45;;;;;;;;;;;29.10;60.30;;;;;;5087990;27;43041;-79
2023/08/19 10:32:31;;;;;;;;;;;29.20;60.30;;;;;;5087665;27;43266;-84
2023/08/19 10:35:09;;;;;;;;;;;29.10;59.90;;;;;;5080024;27;42996;-78
2023/08/19 10:37:35;;;;;;;;;;;29.10;60.10;;;;;;5082643;27;42952;-81
2023/08/19 10:40:05;;;;;;;;;;;29.20;60.10;;;;;;5087058;27;43470;-80
2023/08/19 10:42:31;;;;;;;;;;;29.20;59.90;;;;;;5087683;27;43027;-81
2023/08/19 10:44:56;;;;;;;;;;;29.50;59.70;;;;;;5086261;27;43204;-88
2023/08/19 10:47:22;;;;;;;;;;;29.20;59.40;;;;;;5079426;27;44106;-79
2023/08/19 10:49:48;;;;;;;;;;;29.30;59.90;;;;;;5086732;27;44085;-80
2023/08/19 10:52:20;;;;;;;;;;;27.40;58.10;;;;;;5091216;27;44527;-81
2023/08/19 10:54:47;;;;;;;;;;;29.30;59.60;;;;;;5081629;27;43235;-79
2023/08/19 10:57:17;;;;;;;;;;;29.30;59.70;;;;;;5084316;27;43156;-80
2023/08/19 10:59:46;;;;;;;;;;;29.30;59.40;;;;;;5085467;27;43469;-79
2023/08/19 11:02:12;;;;;;;;;;;29.40;59.50;;;;;;5089473;27;43562;-86
2023/08/19 11:04:42;;;;;;;;;;;29.20;59.00;;;;;;5087063;27;42877;-80
2023/08/19 11:07:08;;;;;;;;;;;29.30;59.50;;;;;;5091562;27;43004;-84
2023/08/19 11:09:34;;;;;;;;;;;29.30;59.80;;;;;;5087607;28;43920;-80
2023/08/19 11:12:00;;;;;;;;;;;29.30;59.50;;;;;;5088780;27;43013;-79
2023/08/19 11:14:25;;;;;;;;;;;29.30;59.10;;;;;;5096427;27;43967;-78
2023/08/19 11:16:52;;;;;;;;;;;29.30;59.80;;;;;;5104309;27;43043;-81
2023/08/19 11:19:18;;;;;;;;;;;29.30;59.60;;;;;;5104463;27;42948;-79
2023/08/19 11:21:44;;;;;;;;;;;29.30;59.40;;;;;;5087686;27;43059;-79
2023/08/19 11:24:10;;;;;;;;;;;29.30;59.50;;;;;;5094148;27;43739;-81
2023/08/19 11:26:35;;;;;;;;;;;29.30;59.50;;;;;;5085985;28;42878;-85
2023/08/19 11:29:04;;;;;;;;;;;29.30;59.40;;;;;;5087613;27;43063;-80
2023/08/19 11:31:30;;;;;;;;;;;29.30;59.30;;;;;;5093521;27;42871;-81
2023/08/19 11:33:55;;;;;;;;;;;29.30;59.50;;;;;;5099073;27;43658;-86
2023/08/19 11:36:27;;;;;;;;;;;29.30;59.50;;;;;;5094170;27;43034;-77
2023/08/19 11:38:56;;;;;;;;;;;29.30;59.30;;;;;;5090330;27;45401;-82
2023/08/19 11:41:22;;;;;;;;;;;29.30;59.30;;;;;;5098939;27;43201;-83
2023/08/19 11:43:49;;;;;;;;;;;29.30;59.40;;;;;;5097541;27;43895;-84
2023/08/19 11:46:15;;;;;;;;;;;29.30;59.40;;;;;;5092427;27;43023;-85
2023/08/19 11:48:41;;;;;;;;;;;29.30;59.00;;;;;;5094861;27;43031;-85
2023/08/19 11:51:13;;;;;;;;;;;31.20;60.10;;;;;;5087651;27;42988;-86
2023/08/19 11:53:40;;;;;;;;;;;29.30;59.20;;;;;;5088429;27;44236;-87
2023/08/19 11:56:06;;;;;;;;;;;30.30;60.50;;;;;;5090410;27;43586;-83
2023/08/19 11:58:47;;;;;;;;;;;29.30;59.40;;;;;;5081506;27;44447;-84
2023/08/19 12:01:13;;;;;;;;;;;29.40;59.30;;;;;;5081450;27;43233;-85
2023/08/19 12:03:42;;;;;;;;;;;29.30;60.10;;;;;;5084940;27;43596;-84
2023/08/19 12:06:08;;;;;;;;;;;29.60;59.30;;;;;;5100160;27;43276;-85
2023/08/19 12:11:25;;;;;;;;;;;29.30;58.60;;;;;;5090641;27;43646;-84
2023/08/19 12:13:54;;;;;;;;;;;29.70;59.40;;;;;;5085162;27;44547;-85
2023/08/19 12:16:20;;;;;;;;;;;28.40;58.40;;;;;;5081566;27;43321;-87
2023/08/19 12:18:45;;;;;;;;;;;29.80;59.70;;;;;;5083506;28;43296;-84
2023/08/19 12:21:11;;;;;;;;;;;29.40;58.60;;;;;;5083852;27;43001;-82
2023/08/19 12:23:36;;;;;;;;;;;29.40;59.30;;;;;;5084958;27;44369;-81
2023/08/19 12:26:02;;;;;;;;;;;29.50;59.20;;;;;;5096736;27;42979;-79
2023/08/19 12:28:30;;;;;;;;;;;29.40;58.50;;;;;;5091352;27;43812;-80
2023/08/19 12:30:56;;;;;;;;;;;29.40;59.00;;;;;;5090319;27;42941;-81
2023/08/19 12:33:22;;;;;;;;;;;29.80;58.90;;;;;;5121173;27;43651;-84
2023/08/19 12:35:51;;;;;;;;;;;29.00;59.10;;;;;;5093168;27;42987;-80
2023/08/19 12:38:20;;;;;;;;;;;29.50;58.80;;;;;;5094976;27;43612;-82
2023/08/19 12:40:46;;;;;;;;;;;29.40;59.00;;;;;;5096253;27;43612;-84
2023/08/19 12:43:13;;;;;;;;;;;29.40;58.90;;;;;;5083720;27;43047;-84
2023/08/19 12:45:39;;;;;;;;;;;29.50;59.10;;;;;;5087812;27;43650;-81
2023/08/19 12:48:09;;;;;;;;;;;29.50;58.50;;;;;;5100612;27;43743;-82
2023/08/19 12:50:38;;;;;;;;;;;29.40;59.30;;;;;;5098835;27;43110;-85
2023/08/19 12:53:03;;;;;;;;;;;29.50;58.90;;;;;;5098658;27;43085;-83
2023/08/19 12:55:29;;;;;;;;;;;29.50;59.20;;;;;;5088051;27;43004;-82
2023/08/19 12:57:58;;;;;;;;;;;29.50;58.30;;;;;;5088694;27;43456;-84
2023/08/19 13:00:25;;;;;;;;;;;29.50;58.80;;;;;;5087624;27;43022;-84
2023/08/19 13:02:51;;;;;;;;;;;29.40;58.90;;;;;;5086559;27;44068;-82
2023/08/19 13:05:17;;;;;;;;;;;29.40;59.80;;;;;;5086065;27;43171;-81
2023/08/19 13:07:42;;;;;;;;;;;29.40;58.90;;;;;;5086127;27;43381;-84
2023/08/19 13:10:09;;;;;;;;;;;29.50;59.10;;;;;;5086967;27;42967;-82
2023/08/19 13:12:34;;;;;;;;;;;29.50;58.90;;;;;;5084605;27;43029;-86
2023/08/19 13:15:00;;;;;;;;;;;29.50;58.70;;;;;;5085551;27;42964;-85
2023/08/19 13:17:26;;;;;;;;;;;29.50;58.20;;;;;;5089865;27;43114;-84
2023/08/19 13:19:54;;;;;;;;;;;29.80;58.40;;;;;;5089459;27;43150;-82
2023/08/19 13:22:21;;;;;;;;;;;29.50;58.80;;;;;;5078429;27;43950;-83
2023/08/19 13:24:49;;;;;;;;;;;29.50;58.90;;;;;;5082131;27;43334;-81
2023/08/19 13:27:17;;;;;;;;;;;29.50;58.90;;;;;;5086666;27;43209;-85
2023/08/19 13:29:43;;;;;;;;;;;29.50;58.30;;;;;;5094961;27;43021;-84
2023/08/19 13:32:09;;;;;;;;;;;29.50;58.50;;;;;;5092379;27;43047;-83
2023/08/19 13:34:35;;;;;;;;;;;29.60;60.10;;;;;;5079869;27;42876;-87
2023/08/19 13:37:00;;;;;;;;;;;29.40;58.50;;;;;;5084175;27;44843;-88
2023/08/19 13:39:29;;;;;;;;;;;29.60;59.80;;;;;;5083815;27;43054;-78
2023/08/19 13:41:55;;;;;;;;;;;29.50;58.90;;;;;;5095806;27;43912;-79
2023/08/19 13:44:24;;;;;;;;;;;29.50;59.90;;;;;;5091752;27;43612;-79
2023/08/19 13:46:50;;;;;;;;;;;29.50;59.20;;;;;;5097159;27;43028;-82
2023/08/19 13:49:16;;;;;;;;;;;29.50;59.30;;;;;;5092390;27;43589;-92
2023/08/19 13:51:42;;;;;;;;;;;29.60;59.70;;;;;;5080246;27;43746;-82
2023/08/19 13:54:07;;;;;;;;;;;29.50;58.50;;;;;;5083226;27;43186;-79
2023/08/19 13:56:33;;;;;;;;;;;29.50;58.40;;;;;;5082104;27;44931;-81
2023/08/19 13:58:59;;;;;;;;;;;30.20;58.80;;;;;;5127446;27;43025;-78
2023/08/19 14:01:24;;;;;;;;;;;29.50;58.30;;;;;;5093831;27;43119;-80
2023/08/19 14:03:50;;;;;;;;;;;29.60;59.90;;;;;;5084723;27;43243;-79
2023/08/19 14:06:16;;;;;;;;;;;30.10;58.80;;;;;;5092889;27;42941;-80
2023/08/19 14:08:41;;;;;;;;;;;29.50;59.10;;;;;;5087152;27;43290;-89
2023/08/19 14:11:10;;;;;;;;;;;29.50;59.40;;;;;;5082049;27;43621;-81
2023/08/19 14:13:36;;;;;;;;;;;29.60;59.20;;;;;;5086406;27;42908;-80